Terminal Aerodrome Forecast
Issued by NWS

Current Version | Previous Version | Text Only | Print | Product List | Glossary Off
Versions: 1 2 3 4 5 6 7 8 9 10 11 12 13 14 15 16 17 18 19 20 21 22

000
FTUS41 KRLX 260259 AAA
TAFCKB
TAF AMD
KCKB 260259Z 2603/2624 17003KT P6SM SCT050
     FM260800 18004KT P6SM BKN050
     FM261200 19004KT 5SM -SHRA BKN040
     FM261700 20007KT P6SM BKN035=

USA.gov is the U.S. government's official web portal to all federal, state and local government web resources and services.